sensor_id;sensor_type;location;lat;lon;timestamp;temperature;humidity
6986;DHT22;3533;51.246;6.850;2023-06-22T00:00:51;24.40;46.30
6986;DHT22;3533;51.246;6.850;2023-06-22T00:03:18;24.40;46.30
6986;DHT22;3533;51.246;6.850;2023-06-22T00:05:44;24.40;46.30
6986;DHT22;3533;51.246;6.850;2023-06-22T00:08:10;24.40;46.30
6986;DHT22;3533;51.246;6.850;2023-06-22T00:10:35;24.40;46.30
6986;DHT22;3533;51.246;6.850;2023-06-22T00:13:01;24.40;46.50
6986;DHT22;3533;51.246;6.850;2023-06-22T00:15:27;24.40;46.30
6986;DHT22;3533;51.246;6.850;2023-06-22T00:17:52;24.40;46.30
6986;DHT22;3533;51.246;6.850;2023-06-22T00:20:18;24.40;46.40
6986;DHT22;3533;51.246;6.850;2023-06-22T00:22:46;24.40;46.30
6986;DHT22;3533;51.246;6.850;2023-06-22T00:25:13;24.40;46.30
6986;DHT22;3533;51.246;6.850;2023-06-22T00:27:39;24.40;46.30
6986;DHT22;3533;51.246;6.850;2023-06-22T00:30:05;24.40;46.30
6986;DHT22;3533;51.246;6.850;2023-06-22T00:32:30;24.40;46.30
6986;DHT22;3533;51.246;6.850;2023-06-22T00:34:56;24.40;46.30
6986;DHT22;3533;51.246;6.850;2023-06-22T00:37:22;24.40;46.30
6986;DHT22;3533;51.246;6.850;2023-06-22T00:39:51;24.40;46.40
6986;DHT22;3533;51.246;6.850;2023-06-22T00:42:16;24.40;46.30
6986;DHT22;3533;51.246;6.850;2023-06-22T00:44:42;24.40;46.30
6986;DHT22;3533;51.246;6.850;2023-06-22T00:47:07;24.40;46.30
6986;DHT22;3533;51.246;6.850;2023-06-22T00:49:33;24.40;46.30
6986;DHT22;3533;51.246;6.850;2023-06-22T00:51:59;24.40;46.30
6986;DHT22;3533;51.246;6.850;2023-06-22T00:54:24;24.40;46.30
6986;DHT22;3533;51.246;6.850;2023-06-22T00:56:53;24.40;46.30
6986;DHT22;3533;51.246;6.850;2023-06-22T00:59:21;24.40;46.30
6986;DHT22;3533;51.246;6.850;2023-06-22T01:01:48;24.40;46.30
6986;DHT22;3533;51.246;6.850;2023-06-22T01:04:13;24.40;46.30
6986;DHT22;3533;51.246;6.850;2023-06-22T01:06:45;24.40;46.30
6986;DHT22;3533;51.246;6.850;2023-06-22T01:09:15;24.40;47.10
6986;DHT22;3533;51.246;6.850;2023-06-22T01:11:50;24.40;46.30
6986;DHT22;3533;51.246;6.850;2023-06-22T01:14:23;24.40;47.10
6986;DHT22;3533;51.246;6.850;2023-06-22T01:16:51;24.40;46.30
6986;DHT22;3533;51.246;6.850;2023-06-22T01:19:39;24.40;46.30
6986;DHT22;3533;51.246;6.850;2023-06-22T01:22:07;24.40;46.30
6986;DHT22;3533;51.246;6.850;2023-06-22T01:28:12;24.40;46.30
6986;DHT22;3533;51.246;6.850;2023-06-22T01:30:43;24.40;46.30
6986;DHT22;3533;51.246;6.850;2023-06-22T01:33:11;24.40;46.30
6986;DHT22;3533;51.246;6.850;2023-06-22T01:35:38;24.40;46.30
6986;DHT22;3533;51.246;6.850;2023-06-22T01:38:05;24.40;46.40
6986;DHT22;3533;51.246;6.850;2023-06-22T01:40:33;24.40;46.30
6986;DHT22;3533;51.246;6.850;2023-06-22T01:43:00;24.40;46.30
6986;DHT22;3533;51.246;6.850;2023-06-22T01:45:27;24.40;46.30
6986;DHT22;3533;51.246;6.850;2023-06-22T01:47:53;24.40;46.30
6986;DHT22;3533;51.246;6.850;2023-06-22T01:50:19;24.40;46.30
6986;DHT22;3533;51.246;6.850;2023-06-22T01:52:45;24.40;46.30
6986;DHT22;3533;51.246;6.850;2023-06-22T01:55:11;24.40;46.30
6986;DHT22;3533;51.246;6.850;2023-06-22T01:57:36;24.40;46.30
6986;DHT22;3533;51.246;6.850;2023-06-22T02:00:07;24.40;46.30
6986;DHT22;3533;51.246;6.850;2023-06-22T02:02:50;24.40;46.30
6986;DHT22;3533;51.246;6.850;2023-06-22T02:05:18;24.40;46.30
6986;DHT22;3533;51.246;6.850;2023-06-22T02:07:54;24.40;46.30
6986;DHT22;3533;51.246;6.850;2023-06-22T02:10:22;24.40;46.40
6986;DHT22;3533;51.246;6.850;2023-06-22T02:12:48;24.40;46.50
6986;DHT22;3533;51.246;6.850;2023-06-22T02:15:15;24.40;46.40
6986;DHT22;3533;51.246;6.850;2023-06-22T02:17:42;24.40;46.40
6986;DHT22;3533;51.246;6.850;2023-06-22T02:20:14;24.40;46.50
6986;DHT22;3533;51.246;6.850;2023-06-22T02:22:40;24.40;46.40
6986;DHT22;3533;51.246;6.850;2023-06-22T02:25:05;24.40;46.30
6986;DHT22;3533;51.246;6.850;2023-06-22T02:27:31;24.40;46.40
6986;DHT22;3533;51.246;6.850;2023-06-22T02:29:57;24.40;46.40
6986;DHT22;3533;51.246;6.850;2023-06-22T02:32:22;24.40;46.30
6986;DHT22;3533;51.246;6.850;2023-06-22T02:34:48;24.40;46.30
6986;DHT22;3533;51.246;6.850;2023-06-22T02:37:14;24.40;46.40
6986;DHT22;3533;51.246;6.850;2023-06-22T02:39:40;24.40;46.30
6986;DHT22;3533;51.246;6.850;2023-06-22T02:42:06;24.40;46.30
6986;DHT22;3533;51.246;6.850;2023-06-22T02:44:32;24.40;46.70
6986;DHT22;3533;51.246;6.850;2023-06-22T02:46:58;24.40;46.30
6986;DHT22;3533;51.246;6.850;2023-06-22T02:49:23;24.40;46.30
6986;DHT22;3533;51.246;6.850;2023-06-22T02:51:50;24.40;46.40
6986;DHT22;3533;51.246;6.850;2023-06-22T02:54:15;24.40;46.30
6986;DHT22;3533;51.246;6.850;2023-06-22T02:56:42;24.40;46.30
6986;DHT22;3533;51.246;6.850;2023-06-22T02:59:09;24.40;46.30
6986;DHT22;3533;51.246;6.850;2023-06-22T03:01:37;24.40;46.30
6986;DHT22;3533;51.246;6.850;2023-06-22T03:04:09;24.40;46.30
6986;DHT22;3533;51.246;6.850;2023-06-22T03:06:35;24.40;46.30
6986;DHT22;3533;51.246;6.850;2023-06-22T03:09:03;24.40;46.30
6986;DHT22;3533;51.246;6.850;2023-06-22T03:11:33;24.40;46.30
6986;DHT22;3533;51.246;6.850;2023-06-22T03:14:00;24.40;46.30
6986;DHT22;3533;51.246;6.850;2023-06-22T03:16:26;24.40;46.30
6986;DHT22;3533;51.246;6.850;2023-06-22T03:18:52;24.40;46.30
6986;DHT22;3533;51.246;6.850;2023-06-22T03:21:22;24.40;46.30
6986;DHT22;3533;51.246;6.850;2023-06-22T03:23:48;24.40;46.30
6986;DHT22;3533;51.246;6.850;2023-06-22T03:26:17;24.40;46.30
6986;DHT22;3533;51.246;6.850;2023-06-22T03:28:43;24.40;46.30
6986;DHT22;3533;51.246;6.850;2023-06-22T03:31:08;24.40;46.20
6986;DHT22;3533;51.246;6.850;2023-06-22T03:33:34;24.40;46.00
6986;DHT22;3533;51.246;6.850;2023-06-22T03:35:59;24.40;46.00
6986;DHT22;3533;51.246;6.850;2023-06-22T03:38:25;24.40;45.90
6986;DHT22;3533;51.246;6.850;2023-06-22T03:40:50;24.40;45.90
6986;DHT22;3533;51.246;6.850;2023-06-22T03:43:16;24.40;45.80
6986;DHT22;3533;51.246;6.850;2023-06-22T03:45:41;24.40;45.70
6986;DHT22;3533;51.246;6.850;2023-06-22T03:48:07;24.40;45.70
6986;DHT22;3533;51.246;6.850;2023-06-22T03:50:32;24.40;45.70
6986;DHT22;3533;51.246;6.850;2023-06-22T03:52:58;24.40;45.70
6986;DHT22;3533;51.246;6.850;2023-06-22T03:55:23;24.40;45.70
6986;DHT22;3533;51.246;6.850;2023-06-22T03:57:49;24.40;45.70
6986;DHT22;3533;51.246;6.850;2023-06-22T04:00:15;24.40;45.70
6986;DHT22;3533;51.246;6.850;2023-06-22T04:02:43;24.40;45.60
6986;DHT22;3533;51.246;6.850;2023-06-22T04:05:09;24.40;45.60
6986;DHT22;3533;51.246;6.850;2023-06-22T04:07:35;24.40;45.70
6986;DHT22;3533;51.246;6.850;2023-06-22T04:10:03;24.50;45.80
6986;DHT22;3533;51.246;6.850;2023-06-22T04:12:29;24.40;45.80
6986;DHT22;3533;51.246;6.850;2023-06-22T04:14:54;24.40;45.80
6986;DHT22;3533;51.246;6.850;2023-06-22T04:17:20;24.50;45.80
6986;DHT22;3533;51.246;6.850;2023-06-22T04:19:46;24.50;45.80
6986;DHT22;3533;51.246;6.850;2023-06-22T04:22:11;24.50;45.90
6986;DHT22;3533;51.246;6.850;2023-06-22T04:24:37;24.50;46.00
6986;DHT22;3533;51.246;6.850;2023-06-22T04:27:03;24.50;46.00
6986;DHT22;3533;51.246;6.850;2023-06-22T04:29:29;24.50;46.00
6986;DHT22;3533;51.246;6.850;2023-06-22T04:31:56;24.50;46.00
6986;DHT22;3533;51.246;6.850;2023-06-22T04:34:24;24.50;46.10
6986;DHT22;3533;51.246;6.850;2023-06-22T04:36:51;24.50;46.10
6986;DHT22;3533;51.246;6.850;2023-06-22T04:39:17;24.50;46.10
6986;DHT22;3533;51.246;6.850;2023-06-22T04:41:44;24.50;46.20
6986;DHT22;3533;51.246;6.850;2023-06-22T04:44:10;24.50;46.10
6986;DHT22;3533;51.246;6.850;2023-06-22T04:46:37;24.50;46.20
6986;DHT22;3533;51.246;6.850;2023-06-22T04:49:09;24.50;46.20
6986;DHT22;3533;51.246;6.850;2023-06-22T04:51:40;24.50;46.20
6986;DHT22;3533;51.246;6.850;2023-06-22T04:54:06;24.50;46.30
6986;DHT22;3533;51.246;6.850;2023-06-22T04:56:33;24.50;46.30
6986;DHT22;3533;51.246;6.850;2023-06-22T04:58:59;24.50;46.30
6986;DHT22;3533;51.246;6.850;2023-06-22T05:01:24;24.50;46.30
6986;DHT22;3533;51.246;6.850;2023-06-22T05:03:51;24.50;46.30
6986;DHT22;3533;51.246;6.850;2023-06-22T05:06:24;24.50;46.30
6986;DHT22;3533;51.246;6.850;2023-06-22T05:08:52;24.50;46.40
6986;DHT22;3533;51.246;6.850;2023-06-22T05:11:18;24.50;46.40
6986;DHT22;3533;51.246;6.850;2023-06-22T05:13:43;24.50;46.40
6986;DHT22;3533;51.246;6.850;2023-06-22T05:16:09;24.50;46.50
6986;DHT22;3533;51.246;6.850;2023-06-22T05:18:35;24.50;46.50
6986;DHT22;3533;51.246;6.850;2023-06-22T05:21:01;24.50;46.50
6986;DHT22;3533;51.246;6.850;2023-06-22T05:23:27;24.50;46.50
6986;DHT22;3533;51.246;6.850;2023-06-22T05:25:52;24.50;46.50
6986;DHT22;3533;51.246;6.850;2023-06-22T05:28:19;24.50;46.50
6986;DHT22;3533;51.246;6.850;2023-06-22T05:30:48;24.50;46.50
6986;DHT22;3533;51.246;6.850;2023-06-22T05:33:13;24.50;46.60
6986;DHT22;3533;51.246;6.850;2023-06-22T05:35:39;24.50;46.60
6986;DHT22;3533;51.246;6.850;2023-06-22T05:38:04;24.50;46.60
6986;DHT22;3533;51.246;6.850;2023-06-22T05:40:30;24.50;46.80
6986;DHT22;3533;51.246;6.850;2023-06-22T05:42:55;24.50;46.70
6986;DHT22;3533;51.246;6.850;2023-06-22T05:45:21;24.50;46.70
6986;DHT22;3533;51.246;6.850;2023-06-22T05:47:46;24.50;46.70
6986;DHT22;3533;51.246;6.850;2023-06-22T05:50:12;24.50;46.70
6986;DHT22;3533;51.246;6.850;2023-06-22T05:52:37;24.50;46.70
6986;DHT22;3533;51.246;6.850;2023-06-22T05:55:03;24.50;46.70
6986;DHT22;3533;51.246;6.850;2023-06-22T05:57:29;24.50;46.70
6986;DHT22;3533;51.246;6.850;2023-06-22T05:59:54;24.50;46.80
6986;DHT22;3533;51.246;6.850;2023-06-22T06:02:20;24.50;46.80
6986;DHT22;3533;51.246;6.850;2023-06-22T06:04:46;24.50;46.80
6986;DHT22;3533;51.246;6.850;2023-06-22T06:07:11;24.50;46.80
6986;DHT22;3533;51.246;6.850;2023-06-22T06:09:37;24.50;47.00
6986;DHT22;3533;51.246;6.850;2023-06-22T06:12:02;24.50;46.90
6986;DHT22;3533;51.246;6.850;2023-06-22T06:14:28;24.50;47.00
6986;DHT22;3533;51.246;6.850;2023-06-22T06:16:54;24.50;47.00
6986;DHT22;3533;51.246;6.850;2023-06-22T06:19:19;24.40;46.90
6986;DHT22;3533;51.246;6.850;2023-06-22T06:21:45;24.50;47.10
6986;DHT22;3533;51.246;6.850;2023-06-22T06:24:12;24.50;47.10
6986;DHT22;3533;51.246;6.850;2023-06-22T06:26:37;24.40;47.00
6986;DHT22;3533;51.246;6.850;2023-06-22T06:29:03;24.40;47.10
6986;DHT22;3533;51.246;6.850;2023-06-22T06:31:29;24.40;47.10
6986;DHT22;3533;51.246;6.850;2023-06-22T06:33:55;24.40;47.10
6986;DHT22;3533;51.246;6.850;2023-06-22T06:36:20;24.50;47.60
6986;DHT22;3533;51.246;6.850;2023-06-22T06:38:46;24.40;47.20
6986;DHT22;3533;51.246;6.850;2023-06-22T06:41:14;24.50;47.30
6986;DHT22;3533;51.246;6.850;2023-06-22T06:43:40;24.50;47.30
6986;DHT22;3533;51.246;6.850;2023-06-22T06:46:05;24.40;47.20
6986;DHT22;3533;51.246;6.850;2023-06-22T06:48:31;24.40;47.20
6986;DHT22;3533;51.246;6.850;2023-06-22T06:50:56;24.40;47.20
6986;DHT22;3533;51.246;6.850;2023-06-22T06:53:22;24.40;47.20
6986;DHT22;3533;51.246;6.850;2023-06-22T06:55:48;24.40;47.30
6986;DHT22;3533;51.246;6.850;2023-06-22T06:58:13;24.40;47.30
6986;DHT22;3533;51.246;6.850;2023-06-22T07:00:39;24.40;47.30
6986;DHT22;3533;51.246;6.850;2023-06-22T07:03:04;24.40;47.30
6986;DHT22;3533;51.246;6.850;2023-06-22T07:05:30;24.40;47.40
6986;DHT22;3533;51.246;6.850;2023-06-22T07:07:56;24.40;47.40
6986;DHT22;3533;51.246;6.850;2023-06-22T07:10:21;24.40;47.50
6986;DHT22;3533;51.246;6.850;2023-06-22T07:12:47;24.40;47.50
6986;DHT22;3533;51.246;6.850;2023-06-22T07:15:13;24.40;47.50
6986;DHT22;3533;51.246;6.850;2023-06-22T07:17:39;24.40;47.50
6986;DHT22;3533;51.246;6.850;2023-06-22T07:20:06;24.40;47.50
6986;DHT22;3533;51.246;6.850;2023-06-22T07:22:43;24.40;47.50
6986;DHT22;3533;51.246;6.850;2023-06-22T07:25:10;24.40;47.50
6986;DHT22;3533;51.246;6.850;2023-06-22T07:27:43;24.40;48.30
6986;DHT22;3533;51.246;6.850;2023-06-22T07:30:10;24.40;47.50
6986;DHT22;3533;51.246;6.850;2023-06-22T07:32:36;24.40;47.50
6986;DHT22;3533;51.246;6.850;2023-06-22T07:35:02;24.40;47.50
6986;DHT22;3533;51.246;6.850;2023-06-22T07:37:30;24.40;47.50
6986;DHT22;3533;51.246;6.850;2023-06-22T07:39:58;24.40;47.50
6986;DHT22;3533;51.246;6.850;2023-06-22T07:42:27;24.40;47.50
6986;DHT22;3533;51.246;6.850;2023-06-22T07:44:58;24.40;47.50
6986;DHT22;3533;51.246;6.850;2023-06-22T07:47:23;24.40;47.50
6986;DHT22;3533;51.246;6.850;2023-06-22T07:49:51;24.40;47.50
6986;DHT22;3533;51.246;6.850;2023-06-22T07:52:20;24.40;47.50
6986;DHT22;3533;51.246;6.850;2023-06-22T07:54:46;24.40;47.50
6986;DHT22;3533;51.246;6.850;2023-06-22T07:57:12;24.40;47.50
6986;DHT22;3533;51.246;6.850;2023-06-22T07:59:37;24.40;47.50
6986;DHT22;3533;51.246;6.850;2023-06-22T08:02:04;24.40;47.50
6986;DHT22;3533;51.246;6.850;2023-06-22T08:04:30;24.40;47.60
6986;DHT22;3533;51.246;6.850;2023-06-22T08:06:57;24.40;47.50
6986;DHT22;3533;51.246;6.850;2023-06-22T08:09:22;24.40;47.50
6986;DHT22;3533;51.246;6.850;2023-06-22T08:11:48;24.40;47.20
6986;DHT22;3533;51.246;6.850;2023-06-22T08:14:14;24.40;47.70
6986;DHT22;3533;51.246;6.850;2023-06-22T08:16:41;24.40;47.50
6986;DHT22;3533;51.246;6.850;2023-06-22T08:19:07;24.40;47.60
6986;DHT22;3533;51.246;6.850;2023-06-22T08:21:32;24.40;47.70
6986;DHT22;3533;51.246;6.850;2023-06-22T08:23:58;24.40;47.60
6986;DHT22;3533;51.246;6.850;2023-06-22T08:26:24;24.40;47.60
6986;DHT22;3533;51.246;6.850;2023-06-22T08:28:49;24.40;47.60
6986;DHT22;3533;51.246;6.850;2023-06-22T08:31:15;24.40;47.60
6986;DHT22;3533;51.246;6.850;2023-06-22T08:33:41;24.50;47.60
6986;DHT22;3533;51.246;6.850;2023-06-22T08:36:08;24.40;47.60
6986;DHT22;3533;51.246;6.850;2023-06-22T08:38:36;24.40;47.60
6986;DHT22;3533;51.246;6.850;2023-06-22T08:41:01;24.50;47.60
6986;DHT22;3533;51.246;6.850;2023-06-22T08:43:28;24.50;47.70
6986;DHT22;3533;51.246;6.850;2023-06-22T08:45:53;24.50;47.70
6986;DHT22;3533;51.246;6.850;2023-06-22T08:48:19;24.40;48.50
6986;DHT22;3533;51.246;6.850;2023-06-22T08:50:44;24.50;47.70
6986;DHT22;3533;51.246;6.850;2023-06-22T08:53:10;24.50;47.70
6986;DHT22;3533;51.246;6.850;2023-06-22T08:55:35;24.50;47.60
6986;DHT22;3533;51.246;6.850;2023-06-22T08:58:01;24.50;47.60
6986;DHT22;3533;51.246;6.850;2023-06-22T09:00:26;24.50;47.70
6986;DHT22;3533;51.246;6.850;2023-06-22T09:02:54;24.50;47.70
6986;DHT22;3533;51.246;6.850;2023-06-22T09:05:24;24.50;47.70
6986;DHT22;3533;51.246;6.850;2023-06-22T09:07:51;24.50;47.70
6986;DHT22;3533;51.246;6.850;2023-06-22T09:10:17;24.50;47.70
6986;DHT22;3533;51.246;6.850;2023-06-22T09:12:43;24.50;47.70
6986;DHT22;3533;51.246;6.850;2023-06-22T09:15:09;24.50;47.70
6986;DHT22;3533;51.246;6.850;2023-06-22T09:17:34;24.50;47.70
6986;DHT22;3533;51.246;6.850;2023-06-22T09:20:01;24.50;47.70
6986;DHT22;3533;51.246;6.850;2023-06-22T09:22:28;24.50;47.70
6986;DHT22;3533;51.246;6.850;2023-06-22T09:24:55;24.50;47.70
6986;DHT22;3533;51.246;6.850;2023-06-22T09:27:21;24.50;47.80
6986;DHT22;3533;51.246;6.850;2023-06-22T09:29:48;24.50;47.70
6986;DHT22;3533;51.246;6.850;2023-06-22T09:32:13;24.50;47.80
6986;DHT22;3533;51.246;6.850;2023-06-22T09:34:39;24.50;47.70
6986;DHT22;3533;51.246;6.850;2023-06-22T09:37:05;24.50;48.50
6986;DHT22;3533;51.246;6.850;2023-06-22T09:39:30;24.50;47.70
6986;DHT22;3533;51.246;6.850;2023-06-22T09:41:58;24.50;47.70
6986;DHT22;3533;51.246;6.850;2023-06-22T09:44:24;24.50;47.70
6986;DHT22;3533;51.246;6.850;2023-06-22T09:46:50;24.50;47.70
6986;DHT22;3533;51.246;6.850;2023-06-22T09:49:15;24.50;47.80
6986;DHT22;3533;51.246;6.850;2023-06-22T09:51:41;24.50;47.70
6986;DHT22;3533;51.246;6.850;2023-06-22T09:54:06;24.50;47.80
6986;DHT22;3533;51.246;6.850;2023-06-22T09:56:35;24.50;47.80
6986;DHT22;3533;51.246;6.850;2023-06-22T09:59:02;24.50;47.70
6986;DHT22;3533;51.246;6.850;2023-06-22T10:01:29;24.50;47.80
6986;DHT22;3533;51.246;6.850;2023-06-22T10:03:55;24.50;47.80
6986;DHT22;3533;51.246;6.850;2023-06-22T10:06:22;24.50;47.80
6986;DHT22;3533;51.246;6.850;2023-06-22T10:08:49;24.50;47.80
6986;DHT22;3533;51.246;6.850;2023-06-22T10:11:15;24.50;47.80
6986;DHT22;3533;51.246;6.850;2023-06-22T10:13:40;24.50;47.80
6986;DHT22;3533;51.246;6.850;2023-06-22T10:16:06;24.50;47.70
6986;DHT22;3533;51.246;6.850;2023-06-22T10:18:32;24.50;47.80
6986;DHT22;3533;51.246;6.850;2023-06-22T10:20:58;24.60;48.00
6986;DHT22;3533;51.246;6.850;2023-06-22T10:23:23;24.50;47.80
6986;DHT22;3533;51.246;6.850;2023-06-22T10:25:49;24.60;47.90
6986;DHT22;3533;51.246;6.850;2023-06-22T10:28:15;24.60;47.90
6986;DHT22;3533;51.246;6.850;2023-06-22T10:30:41;24.50;47.80
6986;DHT22;3533;51.246;6.850;2023-06-22T10:33:08;24.60;47.90
6986;DHT22;3533;51.246;6.850;2023-06-22T10:35:34;24.60;47.90
6986;DHT22;3533;51.246;6.850;2023-06-22T10:37:59;24.60;47.90
6986;DHT22;3533;51.246;6.850;2023-06-22T10:40:25;24.60;47.90
6986;DHT22;3533;51.246;6.850;2023-06-22T10:42:51;24.50;47.90
6986;DHT22;3533;51.246;6.850;2023-06-22T10:45:16;24.50;47.80
6986;DHT22;3533;51.246;6.850;2023-06-22T10:47:42;24.50;47.90
6986;DHT22;3533;51.246;6.850;2023-06-22T10:50:08;24.50;47.90
6986;DHT22;3533;51.246;6.850;2023-06-22T10:52:34;24.50;47.90
6986;DHT22;3533;51.246;6.850;2023-06-22T10:54:59;24.60;48.00
6986;DHT22;3533;51.246;6.850;2023-06-22T10:57:25;24.50;47.80
6986;DHT22;3533;51.246;6.850;2023-06-22T10:59:51;24.60;48.00
6986;DHT22;3533;51.246;6.850;2023-06-22T11:02:16;24.50;47.90
6986;DHT22;3533;51.246;6.850;2023-06-22T11:04:42;24.50;48.00
6986;DHT22;3533;51.246;6.850;2023-06-22T11:07:08;24.50;48.70
6986;DHT22;3533;51.246;6.850;2023-06-22T11:09:34;24.50;48.00
6986;DHT22;3533;51.246;6.850;2023-06-22T11:11:59;24.50;48.00
6986;DHT22;3533;51.246;6.850;2023-06-22T11:14:25;24.50;48.00
6986;DHT22;3533;51.246;6.850;2023-06-22T11:16:51;24.60;48.00
6986;DHT22;3533;51.246;6.850;2023-06-22T11:19:18;24.50;47.90
6986;DHT22;3533;51.246;6.850;2023-06-22T11:21:43;24.50;48.00
6986;DHT22;3533;51.246;6.850;2023-06-22T11:24:09;24.50;48.00
6986;DHT22;3533;51.246;6.850;2023-06-22T11:26:35;24.50;48.00
6986;DHT22;3533;51.246;6.850;2023-06-22T11:29:01;24.50;48.00
6986;DHT22;3533;51.246;6.850;2023-06-22T11:31:30;24.50;48.00
6986;DHT22;3533;51.246;6.850;2023-06-22T11:33:56;24.50;47.90
6986;DHT22;3533;51.246;6.850;2023-06-22T11:36:21;24.50;48.00
6986;DHT22;3533;51.246;6.850;2023-06-22T11:38:47;24.50;48.00
6986;DHT22;3533;51.246;6.850;2023-06-22T11:41:13;24.50;48.00
6986;DHT22;3533;51.246;6.850;2023-06-22T11:43:39;24.50;47.90
6986;DHT22;3533;51.246;6.850;2023-06-22T11:46:07;24.50;48.00
6986;DHT22;3533;51.246;6.850;2023-06-22T11:48:33;24.50;48.00
6986;DHT22;3533;51.246;6.850;2023-06-22T11:50:58;24.50;48.00
6986;DHT22;3533;51.246;6.850;2023-06-22T11:53:25;24.50;48.00
6986;DHT22;3533;51.246;6.850;2023-06-22T11:55:51;24.50;48.00
6986;DHT22;3533;51.246;6.850;2023-06-22T11:58:19;24.50;48.00
6986;DHT22;3533;51.246;6.850;2023-06-22T12:00:44;24.50;48.00
6986;DHT22;3533;51.246;6.850;2023-06-22T12:03:10;24.50;48.00
6986;DHT22;3533;51.246;6.850;2023-06-22T12:05:37;24.50;48.00
6986;DHT22;3533;51.246;6.850;2023-06-22T12:08:03;24.50;48.00
6986;DHT22;3533;51.246;6.850;2023-06-22T12:10:29;24.50;48.00
6986;DHT22;3533;51.246;6.850;2023-06-22T12:12:55;24.50;48.00
6986;DHT22;3533;51.246;6.850;2023-06-22T12:15:20;24.50;48.00
6986;DHT22;3533;51.246;6.850;2023-06-22T12:17:46;24.50;48.00
6986;DHT22;3533;51.246;6.850;2023-06-22T12:20:13;24.50;48.00
6986;DHT22;3533;51.246;6.850;2023-06-22T12:22:40;24.50;48.00
6986;DHT22;3533;51.246;6.850;2023-06-22T12:25:06;24.50;48.00
6986;DHT22;3533;51.246;6.850;2023-06-22T12:27:32;24.50;48.00
6986;DHT22;3533;51.246;6.850;2023-06-22T12:29:58;24.50;48.00
6986;DHT22;3533;51.246;6.850;2023-06-22T12:32:23;24.50;48.00
6986;DHT22;3533;51.246;6.850;2023-06-22T12:34:49;24.50;48.00
6986;DHT22;3533;51.246;6.850;2023-06-22T12:37:15;24.50;48.00
6986;DHT22;3533;51.246;6.850;2023-06-22T12:39:41;24.50;48.00
6986;DHT22;3533;51.246;6.850;2023-06-22T12:42:07;24.50;48.00
6986;DHT22;3533;51.246;6.850;2023-06-22T12:44:34;24.50;48.10
6986;DHT22;3533;51.246;6.850;2023-06-22T12:47:00;24.50;48.10
6986;DHT22;3533;51.246;6.850;2023-06-22T12:49:25;24.50;48.00
6986;DHT22;3533;51.246;6.850;2023-06-22T12:51:51;24.50;48.10
6986;DHT22;3533;51.246;6.850;2023-06-22T12:54:16;24.50;48.10
6986;DHT22;3533;51.246;6.850;2023-06-22T12:56:42;24.50;48.10
6986;DHT22;3533;51.246;6.850;2023-06-22T12:59:10;24.50;48.10
6986;DHT22;3533;51.246;6.850;2023-06-22T13:01:36;24.50;48.10
6986;DHT22;3533;51.246;6.850;2023-06-22T13:04:02;24.50;48.20
6986;DHT22;3533;51.246;6.850;2023-06-22T13:06:28;24.50;48.20
6986;DHT22;3533;51.246;6.850;2023-06-22T13:08:54;24.50;48.20
6986;DHT22;3533;51.246;6.850;2023-06-22T13:11:19;24.50;48.20
6986;DHT22;3533;51.246;6.850;2023-06-22T13:13:45;24.50;48.20
6986;DHT22;3533;51.246;6.850;2023-06-22T13:16:11;24.50;48.30
6986;DHT22;3533;51.246;6.850;2023-06-22T13:18:37;24.50;48.30
6986;DHT22;3533;51.246;6.850;2023-06-22T13:21:05;24.50;48.30
6986;DHT22;3533;51.246;6.850;2023-06-22T13:23:31;24.50;48.30
6986;DHT22;3533;51.246;6.850;2023-06-22T13:25:58;24.50;48.30
6986;DHT22;3533;51.246;6.850;2023-06-22T13:28:24;24.40;48.20
6986;DHT22;3533;51.246;6.850;2023-06-22T13:30:49;24.50;48.30
6986;DHT22;3533;51.246;6.850;2023-06-22T13:33:15;24.50;48.40
6986;DHT22;3533;51.246;6.850;2023-06-22T13:35:40;24.50;48.50
6986;DHT22;3533;51.246;6.850;2023-06-22T13:38:08;24.40;48.50
6986;DHT22;3533;51.246;6.850;2023-06-22T13:40:34;24.50;48.50
6986;DHT22;3533;51.246;6.850;2023-06-22T13:43:06;24.40;48.50
6986;DHT22;3533;51.246;6.850;2023-06-22T13:45:32;24.50;48.60
6986;DHT22;3533;51.246;6.850;2023-06-22T13:47:57;24.50;48.50
6986;DHT22;3533;51.246;6.850;2023-06-22T13:50:23;24.50;48.60
6986;DHT22;3533;51.246;6.850;2023-06-22T13:52:48;24.50;48.50
6986;DHT22;3533;51.246;6.850;2023-06-22T13:55:14;24.50;48.60
6986;DHT22;3533;51.246;6.850;2023-06-22T13:57:40;24.50;48.50
6986;DHT22;3533;51.246;6.850;2023-06-22T14:00:07;24.50;48.60
6986;DHT22;3533;51.246;6.850;2023-06-22T14:02:34;24.50;48.50
6986;DHT22;3533;51.246;6.850;2023-06-22T14:05:00;24.50;48.60
6986;DHT22;3533;51.246;6.850;2023-06-22T14:07:25;24.50;48.60
6986;DHT22;3533;51.246;6.850;2023-06-22T14:09:51;24.50;48.60
6986;DHT22;3533;51.246;6.850;2023-06-22T14:12:16;24.50;48.60
6986;DHT22;3533;51.246;6.850;2023-06-22T14:14:45;24.50;48.60
6986;DHT22;3533;51.246;6.850;2023-06-22T14:17:11;24.50;48.60
6986;DHT22;3533;51.246;6.850;2023-06-22T14:19:37;24.50;48.60
6986;DHT22;3533;51.246;6.850;2023-06-22T14:22:03;24.50;48.60
6986;DHT22;3533;51.246;6.850;2023-06-22T14:24:28;24.50;48.60
6986;DHT22;3533;51.246;6.850;2023-06-22T14:26:55;24.50;48.60
6986;DHT22;3533;51.246;6.850;2023-06-22T14:29:21;24.50;48.60
6986;DHT22;3533;51.246;6.850;2023-06-22T14:31:47;24.50;48.60
6986;DHT22;3533;51.246;6.850;2023-06-22T14:34:13;24.50;48.50
6986;DHT22;3533;51.246;6.850;2023-06-22T14:36:39;24.50;48.60
6986;DHT22;3533;51.246;6.850;2023-06-22T14:39:04;24.40;48.50
6986;DHT22;3533;51.246;6.850;2023-06-22T14:41:30;24.40;48.50
6986;DHT22;3533;51.246;6.850;2023-06-22T14:43:56;24.50;48.50
6986;DHT22;3533;51.246;6.850;2023-06-22T14:46:22;24.50;48.60
6986;DHT22;3533;51.246;6.850;2023-06-22T14:48:48;24.40;48.60
6986;DHT22;3533;51.246;6.850;2023-06-22T14:51:13;24.50;48.60
6986;DHT22;3533;51.246;6.850;2023-06-22T14:53:39;24.40;48.50
6986;DHT22;3533;51.246;6.850;2023-06-22T14:56:05;24.40;48.60
6986;DHT22;3533;51.246;6.850;2023-06-22T14:58:32;24.50;48.60
6986;DHT22;3533;51.246;6.850;2023-06-22T15:01:04;24.40;48.60
6986;DHT22;3533;51.246;6.850;2023-06-22T15:03:31;24.40;48.50
6986;DHT22;3533;51.246;6.850;2023-06-22T15:05:58;24.40;48.60
6986;DHT22;3533;51.246;6.850;2023-06-22T15:08:23;24.50;48.60
6986;DHT22;3533;51.246;6.850;2023-06-22T15:10:49;24.40;48.60
6986;DHT22;3533;51.246;6.850;2023-06-22T15:13:15;24.40;48.60
6986;DHT22;3533;51.246;6.850;2023-06-22T15:15:42;24.40;48.60
6986;DHT22;3533;51.246;6.850;2023-06-22T15:18:08;24.50;48.60
6986;DHT22;3533;51.246;6.850;2023-06-22T15:20:33;24.40;48.60
6986;DHT22;3533;51.246;6.850;2023-06-22T15:22:59;24.40;48.60
6986;DHT22;3533;51.246;6.850;2023-06-22T15:25:25;24.40;48.60
6986;DHT22;3533;51.246;6.850;2023-06-22T15:27:50;24.40;48.60
6986;DHT22;3533;51.246;6.850;2023-06-22T15:30:16;24.40;48.60
6986;DHT22;3533;51.246;6.850;2023-06-22T15:32:45;24.40;48.60
6986;DHT22;3533;51.246;6.850;2023-06-22T15:35:11;24.50;48.60
6986;DHT22;3533;51.246;6.850;2023-06-22T15:37:37;24.40;48.50
6986;DHT22;3533;51.246;6.850;2023-06-22T15:40:03;24.40;48.60
6986;DHT22;3533;51.246;6.850;2023-06-22T15:42:29;24.40;48.60
6986;DHT22;3533;51.246;6.850;2023-06-22T15:44:54;24.40;48.60
6986;DHT22;3533;51.246;6.850;2023-06-22T15:47:20;24.50;48.60
6986;DHT22;3533;51.246;6.850;2023-06-22T15:49:48;24.40;48.60
6986;DHT22;3533;51.246;6.850;2023-06-22T15:52:13;24.40;48.50
6986;DHT22;3533;51.246;6.850;2023-06-22T15:54:43;24.50;48.60
6986;DHT22;3533;51.246;6.850;2023-06-22T15:57:08;24.50;48.60
6986;DHT22;3533;51.246;6.850;2023-06-22T15:59:40;24.50;48.60